Time;durP1;ratioP1;P1;durP2;ratioP2;P2;SDS_P1;SDS_P2;PMS_P1;PMS_P2;Temp;Humidity;BMP_temperature;BMP_pressure;BME280_temperature;BME280_humidity;BME280_pressure;Samples;Min_cycle;Max_cycle;Signal;HPM_P1;HPM_P2
2023/04/21 00:00:26;;;;;;;2.55;2.17;;;;;;;8.57;100.00;97145.78;5097968;27;20023;-77
2023/04/21 00:02:51;;;;;;;2.33;1.52;;;;;;;8.44;100.00;97135.94;5095653;27;20111;-77
2023/04/21 00:05:16;;;;;;;8.05;2.53;;;;;;;8.44;100.00;97144.81;5095138;27;20057;-77
2023/04/21 00:07:42;;;;;;;2.05;1.85;;;;;;;8.48;100.00;97143.69;5098175;27;20065;-77
2023/04/21 00:10:11;;;;;;;6.13;2.58;;;;;;;8.43;100.00;97140.41;5094129;27;20056;-78
2023/04/21 00:12:37;;;;;;;3.00;2.53;;;;;;;8.40;100.00;97159.25;5097814;27;20033;-77
2023/04/21 00:15:03;;;;;;;2.67;1.75;;;;;;;8.32;100.00;97150.00;5094185;28;20028;-78
2023/04/21 00:17:29;;;;;;;3.45;2.67;;;;;;;8.26;100.00;97131.69;5103513;28;20030;-78
2023/04/21 00:19:55;;;;;;;2.83;2.05;;;;;;;8.34;100.00;97150.75;5096525;27;20023;-77
2023/04/21 00:22:21;;;;;;;2.30;2.10;;;;;;;8.25;100.00;97153.94;5097111;27;20475;-77
2023/04/21 00:24:46;;;;;;;4.45;2.70;;;;;;;8.18;100.00;97146.31;5095861;27;20022;-77
2023/04/21 00:27:12;;;;;;;4.65;2.45;;;;;;;8.11;100.00;97144.97;5095636;27;20027;-77
2023/04/21 00:29:39;;;;;;;4.15;2.88;;;;;;;8.10;100.00;97151.25;5115463;27;20058;-77
2023/04/21 00:32:07;;;;;;;3.40;2.33;;;;;;;8.04;100.00;97148.94;5094443;27;20553;-78
2023/04/21 00:34:33;;;;;;;4.50;2.80;;;;;;;7.95;100.00;97146.81;5114460;27;20026;-78
2023/04/21 00:36:59;;;;;;;1.90;1.80;;;;;;;7.94;100.00;97150.41;5114691;27;20494;-78
2023/04/21 00:39:24;;;;;;;4.28;2.72;;;;;;;7.80;100.00;97142.38;5097244;27;20033;-78
2023/04/21 00:41:50;;;;;;;2.50;2.08;;;;;;;7.87;100.00;97153.53;5111371;27;20098;-78
2023/04/21 00:44:16;;;;;;;2.67;2.00;;;;;;;7.76;100.00;97150.59;5111517;27;20092;-78
2023/04/21 00:46:42;;;;;;;2.17;1.23;;;;;;;7.64;100.00;97136.19;5097603;27;20514;-78
2023/04/21 00:49:07;;;;;;;3.38;1.85;;;;;;;7.62;100.00;97138.09;5094319;27;20475;-78
2023/04/21 00:51:35;;;;;;;2.03;1.60;;;;;;;7.51;100.00;97125.38;5094489;27;20070;-78
2023/04/21 00:54:04;;;;;;;5.45;2.67;;;;;;;7.60;100.00;97137.31;5097055;27;20129;-78
2023/04/21 00:56:31;;;;;;;1.63;1.52;;;;;;;7.43;100.00;97127.63;5097573;27;20081;-77
2023/04/21 00:58:58;;;;;;;7.20;2.63;;;;;;;7.36;100.00;97123.59;5091175;28;20088;-77
2023/04/21 01:01:24;;;;;;;2.10;1.05;;;;;;;7.30;100.00;97136.38;5094697;27;20023;-77
2023/04/21 01:03:50;;;;;;;12.18;1.27;;;;;;;7.22;100.00;97133.28;5096528;27;20022;-77
2023/04/21 01:06:17;;;;;;;4.90;1.40;;;;;;;7.17;100.00;97130.03;5111101;27;20028;-78
2023/04/21 01:08:47;;;;;;;2.42;1.65;;;;;;;7.23;100.00;97140.34;5093731;28;20043;-78
2023/04/21 01:11:13;;;;;;;0.43;0.40;;;;;;;7.17;100.00;97133.53;5094724;27;20410;-78
2023/04/21 01:13:39;;;;;;;0.85;0.85;;;;;;;7.12;100.00;97132.94;5106280;27;20045;-77
2023/04/21 01:16:06;;;;;;;4.57;3.00;;;;;;;7.12;100.00;97148.03;5111503;27;20026;-76
2023/04/21 01:18:32;;;;;;;2.50;0.95;;;;;;;7.08;100.00;97150.84;5114077;27;20019;-78
2023/04/21 01:20:58;;;;;;;1.75;1.23;;;;;;;6.95;100.00;97130.34;5094817;27;20042;-78
2023/04/21 01:23:24;;;;;;;3.10;1.98;;;;;;;7.14;100.00;97162.13;5112026;27;20534;-78
2023/04/21 01:25:50;;;;;;;2.00;1.23;;;;;;;7.17;100.00;97156.63;5114229;27;20106;-77
2023/04/21 01:28:23;;;;;;;15.13;2.40;;;;;;;7.00;100.00;97150.44;5096766;27;20023;-78
2023/04/21 01:30:49;;;;;;;1.88;1.65;;;;;;;6.91;100.00;97153.59;5113344;27;20094;-77
2023/04/21 01:33:14;;;;;;;1.25;1.17;;;;;;;6.92;100.00;97149.97;5095989;27;20110;-77
2023/04/21 01:35:40;;;;;;;3.80;2.47;;;;;;;6.96;100.00;97143.53;5091663;28;20454;-77
2023/04/21 01:38:05;;;;;;;7.43;2.00;;;;;;;6.98;100.00;97141.66;5110393;27;20457;-77
2023/04/21 01:40:31;;;;;;;2.80;1.98;;;;;;;7.01;100.00;97143.31;5113527;27;20064;-78
2023/04/21 01:42:57;;;;;;;2.70;1.38;;;;;;;6.95;100.00;97138.34;5113550;27;20019;-78
2023/04/21 01:45:22;;;;;;;1.73;1.55;;;;;;;6.91;100.00;97132.31;5096542;27;20058;-77
2023/04/21 01:47:48;;;;;;;3.13;2.45;;;;;;;6.97;100.00;97131.97;5096804;27;20516;-77
2023/04/21 01:50:13;;;;;;;1.30;0.85;;;;;;;6.94;100.00;97128.63;5096425;28;20042;-77
2023/04/21 01:52:40;;;;;;;2.65;2.40;;;;;;;6.97;100.00;97133.78;5096291;27;20027;-77
2023/04/21 01:55:06;;;;;;;2.08;1.50;;;;;;;6.88;100.00;97118.31;5093469;28;20051;-78
2023/04/21 01:57:35;;;;;;;2.35;1.33;;;;;;;6.87;100.00;97117.47;5113291;28;20469;-80
2023/04/21 02:00:01;;;;;;;1.08;0.98;;;;;;;6.92;100.00;97120.72;5090322;28;20027;-77
2023/04/21 02:02:27;;;;;;;2.13;1.60;;;;;;;6.99;100.00;97118.59;5094825;28;20031;-78
2023/04/21 02:04:52;;;;;;;1.90;1.60;;;;;;;7.03;100.00;97117.50;5096249;28;20050;-77
2023/04/21 02:07:18;;;;;;;2.28;1.70;;;;;;;7.04;100.00;97133.34;5096292;28;20075;-78
2023/04/21 02:09:43;;;;;;;3.63;2.20;;;;;;;6.91;100.00;97121.69;5086612;28;20026;-77
2023/04/21 02:12:09;;;;;;;2.15;1.80;;;;;;;6.82;100.00;97118.66;5091236;28;20501;-78
2023/04/21 02:14:36;;;;;;;0.77;0.77;;;;;;;6.64;100.00;97114.34;5096020;27;20031;-78
2023/04/21 02:17:02;;;;;;;1.83;1.25;;;;;;;6.52;100.00;97111.38;5096313;28;20027;-78
2023/04/21 02:19:28;;;;;;;4.05;2.40;;;;;;;6.49;100.00;97116.00;5111989;28;20069;-77
2023/04/21 02:21:54;;;;;;;11.38;1.42;;;;;;;6.52;100.00;97115.84;5087108;28;20132;-78
2023/04/21 02:24:20;;;;;;;0.68;0.63;;;;;;;6.52;100.00;97118.50;5094301;28;20019;-76
2023/04/21 02:26:45;;;;;;;9.75;4.38;;;;;;;6.55;100.00;97127.16;5113258;28;20050;-78
2023/04/21 02:30:23;;;;;;;2.20;2.00;;;;;;;6.58;100.00;97131.47;5113110;27;20023;-79
2023/04/21 02:33:01;;;;;;;1.35;1.20;;;;;;;6.60;100.00;97140.19;5102265;28;20122;-79
2023/04/21 02:35:43;;;;;;;4.18;1.10;;;;;;;6.36;100.00;97109.63;5122014;28;20477;-78
2023/04/21 02:38:09;;;;;;;2.13;1.80;;;;;;;6.54;100.00;97145.84;5110948;28;20051;-77
2023/04/21 02:40:35;;;;;;;1.55;1.40;;;;;;;6.56;100.00;97157.25;5092710;28;20046;-77
2023/04/21 02:43:01;;;;;;;1.58;1.48;;;;;;;6.48;100.00;97147.03;5094084;28;20110;-77
2023/04/21 02:45:27;;;;;;;2.97;1.85;;;;;;;6.54;100.00;97153.81;5114322;27;20106;-77
2023/04/21 02:47:52;;;;;;;1.50;1.27;;;;;;;6.54;100.00;97149.38;5099024;27;20118;-77
2023/04/21 02:50:18;;;;;;;2.67;1.55;;;;;;;6.62;100.00;97164.88;5116701;27;20051;-76
2023/04/21 02:52:44;;;;;;;1.48;1.33;;;;;;;6.57;100.00;97168.72;5099516;27;20030;-76
2023/04/21 02:55:09;;;;;;;1.98;1.83;;;;;;;6.48;100.00;97168.28;5112078;27;20034;-77
2023/04/21 02:57:35;;;;;;;3.95;1.83;;;;;;;6.54;100.00;97172.41;5099645;27;20071;-77
2023/04/21 03:00:00;;;;;;;2.22;1.25;;;;;;;6.47;100.00;97166.56;5098095;27;20019;-77
2023/04/21 03:02:26;;;;;;;4.13;2.90;;;;;;;6.49;100.00;97175.28;5099461;27;20027;-78
2023/04/21 03:04:52;;;;;;;1.35;1.25;;;;;;;6.48;100.00;97167.41;5109048;27;20562;-78
2023/04/21 03:07:17;;;;;;;2.42;2.22;;;;;;;6.54;100.00;97172.41;5097873;27;20023;-78
2023/04/21 03:09:43;;;;;;;3.20;2.75;;;;;;;6.55;100.00;97184.75;5098122;27;20034;-77
2023/04/21 03:12:08;;;;;;;1.48;1.38;;;;;;;6.50;100.00;97181.47;5096231;28;20403;-78
2023/04/21 03:14:34;;;;;;;4.10;1.42;;;;;;;6.33;100.00;97181.50;5098979;27;20070;-77
2023/04/21 03:16:59;;;;;;;5.20;1.75;;;;;;;6.37;100.00;97198.97;5095919;28;20024;-77
2023/04/21 03:19:25;;;;;;;8.18;2.60;;;;;;;6.40;100.00;97206.78;5134379;27;20053;-77
2023/04/21 03:21:50;;;;;;;6.60;3.28;;;;;;;6.29;100.00;97182.56;5109968;27;20521;-77
2023/04/21 03:24:16;;;;;;;5.13;2.47;;;;;;;6.29;100.00;97199.38;5095987;27;20495;-77
2023/04/21 03:26:41;;;;;;;2.28;1.38;;;;;;;6.34;100.00;97196.47;5087830;28;20081;-78
2023/04/21 03:29:07;;;;;;;1.33;1.25;;;;;;;6.40;100.00;97206.78;5096592;27;20093;-77
2023/04/21 03:31:32;;;;;;;1.58;1.48;;;;;;;6.43;100.00;97203.97;5116356;27;20027;-78
2023/04/21 03:33:58;;;;;;;1.90;1.67;;;;;;;6.31;100.00;97186.00;5095155;27;20034;-77
2023/04/21 03:36:24;;;;;;;2.67;1.35;;;;;;;6.44;100.00;97203.91;5098413;27;20039;-77
2023/04/21 03:38:49;;;;;;;2.08;1.50;;;;;;;6.43;100.00;97202.16;5098690;27;20019;-77
2023/04/21 03:41:15;;;;;;;5.50;1.75;;;;;;;6.37;100.00;97196.31;5109117;27;20051;-77
2023/04/21 03:43:40;;;;;;;2.65;1.95;;;;;;;6.31;100.00;97196.63;5098672;27;20031;-77
2023/04/21 03:46:06;;;;;;;2.95;1.77;;;;;;;6.30;100.00;97190.47;5112572;27;20034;-77
2023/04/21 03:48:31;;;;;;;2.10;1.90;;;;;;;6.36;100.00;97190.16;5098473;27;20121;-78
2023/04/21 03:50:57;;;;;;;3.25;1.67;;;;;;;6.41;100.00;97206.72;5080007;28;20059;-76
2023/04/21 03:53:22;;;;;;;1.73;1.63;;;;;;;6.31;100.00;97213.41;5078251;28;20120;-77
2023/04/21 03:55:51;;;;;;;2.22;1.88;;;;;;;6.30;100.00;97197.56;5093556;28;20035;-78
2023/04/21 03:58:17;;;;;;;2.95;1.88;;;;;;;6.16;100.00;97192.94;5076778;28;20399;-76
2023/04/21 04:00:42;;;;;;;3.20;2.08;;;;;;;6.12;100.00;97209.13;5078234;28;20031;-76
2023/04/21 04:03:08;;;;;;;1.95;1.67;;;;;;;6.16;100.00;97210.66;5094838;28;20649;-77
2023/04/21 04:05:37;;;;;;;1.45;1.33;;;;;;;6.20;100.00;97222.88;5078002;28;20023;-77
2023/04/21 04:08:03;;;;;;;3.05;2.75;;;;;;;6.16;100.00;97223.94;5095231;28;20027;-77
2023/04/21 04:10:28;;;;;;;1.52;1.27;;;;;;;6.00;100.00;97227.34;5087213;28;20407;-78
2023/04/21 04:12:54;;;;;;;11.55;2.75;;;;;;;6.06;100.00;97238.63;5078243;28;20466;-79
2023/04/21 04:15:19;;;;;;;3.35;2.17;;;;;;;6.03;100.00;97242.28;5094912;28;20055;-76
2023/04/21 04:17:45;;;;;;;5.03;2.30;;;;;;;5.99;100.00;97246.03;5094512;28;20038;-77
2023/04/21 04:20:11;;;;;;;7.00;4.63;;;;;;;6.15;100.00;97243.50;5094494;28;20139;-77
2023/04/21 04:22:37;;;;;;;4.40;3.45;;;;;;;6.15;100.00;97244.34;5077573;28;20050;-77
2023/04/21 04:25:03;;;;;;;2.40;1.88;;;;;;;6.09;100.00;97244.63;5077517;28;20503;-78
2023/04/21 04:27:28;;;;;;;2.22;1.48;;;;;;;6.11;100.00;97244.56;5094556;28;20059;-79
2023/04/21 04:29:54;;;;;;;4.93;3.97;;;;;;;6.19;100.00;97251.22;5094177;28;20024;-81
2023/04/21 04:32:20;;;;;;;7.90;2.35;;;;;;;6.29;100.00;97247.19;5077534;28;20055;-82
2023/04/21 04:34:46;;;;;;;4.18;3.25;;;;;;;6.41;100.00;97245.69;5073818;28;20093;-76
2023/04/21 04:37:11;;;;;;;5.28;2.58;;;;;;;6.43;100.00;97244.66;5075351;28;20023;-77
2023/04/21 04:39:37;;;;;;;5.40;3.60;;;;;;;6.44;100.00;97250.84;5075681;28;20034;-76
2023/04/21 04:42:07;;;;;;;6.35;3.70;;;;;;;6.57;100.00;97257.28;5094203;28;20392;-77
2023/04/21 04:44:33;;;;;;;8.00;3.35;;;;;;;6.73;100.00;97263.53;5077367;28;20101;-78
2023/04/21 04:46:58;;;;;;;8.18;5.05;;;;;;;6.86;100.00;97267.25;5094129;28;20490;-77
2023/04/21 04:49:24;;;;;;;12.18;4.18;;;;;;;7.14;100.00;97263.19;5084736;28;20057;-77
2023/04/21 04:51:50;;;;;;;18.27;4.97;;;;;;;7.30;100.00;97259.59;5014562;28;20125;-78
2023/04/21 04:54:16;;;;;;;5.35;3.90;;;;;;;7.40;100.00;97259.97;5030650;28;20100;-78
2023/04/21 04:56:41;;;;;;;10.30;4.05;;;;;;;7.46;100.00;97259.63;5030858;28;20025;-77
2023/04/21 04:59:07;;;;;;;3.83;3.03;;;;;;;7.52;100.00;97254.84;5030683;28;20153;-77
2023/04/21 05:01:32;;;;;;;3.65;2.60;;;;;;;7.71;100.00;97253.84;5031187;28;20035;-78
2023/04/21 05:03:58;;;;;;;3.13;2.60;;;;;;;7.78;100.00;97250.75;5014074;28;20029;-78
2023/04/21 05:06:24;;;;;;;3.70;2.17;;;;;;;7.82;100.00;97228.31;5047441;28;20028;-76
2023/04/21 05:08:49;;;;;;;6.38;4.50;;;;;;;7.82;100.00;97215.00;5030897;28;20082;-78
2023/04/21 05:11:15;;;;;;;4.35;3.28;;;;;;;7.84;100.00;97218.47;5030550;28;20029;-78
2023/04/21 05:13:40;;;;;;;3.80;1.55;;;;;;;7.89;100.00;97215.53;5030714;28;20031;-78
2023/04/21 05:16:06;;;;;;;5.88;2.97;;;;;;;8.00;100.00;97219.28;5030557;28;20085;-78
2023/04/21 05:18:32;;;;;;;6.03;4.10;;;;;;;8.16;100.00;97208.63;5030782;28;20028;-77
2023/04/21 05:20:57;;;;;;;13.30;6.25;;;;;;;8.15;100.00;97213.09;5014188;28;20028;-78
2023/04/21 05:23:23;;;;;;;3.53;2.92;;;;;;;8.57;100.00;97214.25;5013845;28;20029;-78
2023/04/21 05:25:48;;;;;;;6.55;4.50;;;;;;;8.87;100.00;97191.06;5014024;28;20032;-77
2023/04/21 05:28:14;;;;;;;4.88;3.53;;;;;;;9.18;100.00;97182.88;5014008;28;20480;-82
2023/04/21 05:30:55;;;;;;;3.75;3.15;;;;;;;9.18;100.00;97142.88;5013426;28;20408;-79
2023/04/21 05:33:21;;;;;;;4.97;3.83;;;;;;;9.17;100.00;97141.13;5034516;28;20025;-78
2023/04/21 05:35:46;;;;;;;5.18;3.53;;;;;;;8.98;100.00;97140.56;5048200;28;20029;-76
2023/04/21 05:38:12;;;;;;;12.98;3.97;;;;;;;8.99;100.00;97136.97;5030127;28;20024;-78
2023/04/21 05:40:37;;;;;;;8.18;4.00;;;;;;;9.18;100.00;97142.00;5013915;28;20033;-76
2023/04/21 05:43:03;;;;;;;5.05;3.97;;;;;;;9.16;100.00;97131.44;5013534;28;20021;-79
2023/04/21 05:45:28;;;;;;;9.02;5.60;;;;;;;9.36;100.00;97134.63;5030485;28;20034;-77
2023/04/21 05:47:54;;;;;;;6.30;4.50;;;;;;;9.34;100.00;97126.75;5013969;28;20017;-78
2023/04/21 05:50:19;;;;;;;6.25;3.92;;;;;;;9.29;100.00;97131.50;5010172;28;20048;-78
2023/04/21 05:52:45;;;;;;;21.10;6.22;;;;;;;9.21;100.00;97125.81;5010402;28;20032;-78
2023/04/21 05:55:10;;;;;;;43.00;21.30;;;;;;;9.25;100.00;97132.66;5027029;28;20507;-80
2023/04/21 05:57:36;;;;;;;58.53;26.00;;;;;;;9.35;100.00;97130.28;5026686;28;20528;-76
2023/04/21 06:00:02;;;;;;;53.15;23.30;;;;;;;9.57;100.00;97125.25;5010295;28;20117;-78
2023/04/21 06:02:27;;;;;;;44.65;23.05;;;;;;;9.72;100.00;97126.94;5010013;28;20480;-77
2023/04/21 06:04:53;;;;;;;41.55;21.55;;;;;;;9.89;100.00;97123.16;5009973;28;20073;-78
2023/04/21 06:07:19;;;;;;;50.70;24.50;;;;;;;10.24;100.00;97108.34;5009990;28;20094;-77
2023/04/21 06:09:49;;;;;;;51.08;25.95;;;;;;;10.23;100.00;97098.59;5027729;28;20469;-78
2023/04/21 06:12:14;;;;;;;54.55;27.15;;;;;;;10.53;100.00;97098.31;5095677;27;20038;-77
2023/04/21 06:14:40;;;;;;;60.70;28.42;;;;;;;10.83;100.00;97089.00;5096431;28;20027;-77
2023/04/21 06:17:05;;;;;;;59.85;26.85;;;;;;;11.30;100.00;97095.47;5111689;27;20380;-77
2023/04/21 06:19:38;;;;;;;60.78;29.15;;;;;;;12.00;100.00;97091.19;5098735;27;20066;-79
2023/04/21 06:22:04;;;;;;;62.03;28.67;;;;;;;12.24;100.00;97073.25;5115845;27;20047;-77
2023/04/21 06:24:33;;;;;;;60.55;28.52;;;;;;;13.20;100.00;97071.94;5110290;27;20391;-79
2023/04/21 06:26:58;;;;;;;118.00;62.70;;;;;;;14.37;100.00;97063.13;5099510;27;20029;-78
2023/04/21 06:29:24;;;;;;;50.13;24.23;;;;;;;15.10;100.00;97040.63;5099399;27;20109;-77
2023/04/21 06:31:49;;;;;;;44.60;25.20;;;;;;;15.13;100.00;97013.41;5117357;27;20027;-77
2023/04/21 06:34:15;;;;;;;42.63;24.17;;;;;;;14.30;100.00;97007.25;5099892;27;20027;-79
2023/04/21 06:36:40;;;;;;;34.67;20.60;;;;;;;14.00;100.00;97016.06;5099798;27;20464;-78
2023/04/21 06:39:06;;;;;;;50.10;27.73;;;;;;;14.27;100.00;97012.88;5100039;27;20027;-78
2023/04/21 06:41:31;;;;;;;33.28;18.17;;;;;;;14.28;100.00;97003.81;5099763;27;20058;-78
2023/04/21 06:43:57;;;;;;;33.00;18.20;;;;;;;14.09;100.00;96996.47;5099894;27;20118;-79
2023/04/21 06:46:22;;;;;;;29.30;16.95;;;;;;;13.93;100.00;96999.63;5116513;27;20022;-77
2023/04/21 06:48:48;;;;;;;39.30;17.80;;;;;;;13.91;100.00;96993.50;5099500;27;20023;-77
2023/04/21 06:51:13;;;;;;;32.10;16.67;;;;;;;14.11;100.00;96995.38;5099628;27;20072;-78
2023/04/21 06:53:39;;;;;;;32.30;18.02;;;;;;;14.10;100.00;96992.78;5099568;27;20062;-77
2023/04/21 06:56:05;;;;;;;32.47;18.83;;;;;;;14.46;100.00;97004.97;5099453;27;20023;-78
2023/04/21 06:58:30;;;;;;;53.92;21.05;;;;;;;15.71;100.00;96988.31;5099293;27;20038;-77
2023/04/21 07:00:56;;;;;;;49.60;24.60;;;;;;;16.35;100.00;96970.69;5116534;27;20015;-77
2023/04/21 07:03:21;;;;;;;37.63;22.42;;;;;;;16.02;100.00;96953.13;5116350;27;20072;-77
2023/04/21 07:05:47;;;;;;;42.78;21.05;;;;;;;15.53;100.00;96949.56;5116020;27;20494;-77
2023/04/21 07:08:12;;;;;;;37.85;21.77;;;;;;;15.15;100.00;96960.22;5099323;27;20057;-77
2023/04/21 07:10:38;;;;;;;39.00;21.90;;;;;;;15.01;100.00;96964.13;5098825;27;20019;-76
2023/04/21 07:13:03;;;;;;;30.10;19.00;;;;;;;14.59;100.00;96966.09;5098995;27;20106;-76
2023/04/21 07:15:29;;;;;;;31.45;19.02;;;;;;;15.09;100.00;96969.72;5098355;27;20034;-77
2023/04/21 07:17:55;;;;;;;36.13;17.52;;;;;;;15.37;100.00;96956.44;5098943;27;20062;-77
2023/04/21 07:20:20;;;;;;;30.50;18.80;;;;;;;15.59;100.00;96962.50;5098821;27;20023;-76
2023/04/21 07:22:55;;;;;;;27.02;17.35;;;;;;;16.85;100.00;96952.41;5116421;27;20026;-82
2023/04/21 07:25:21;;;;;;;24.95;16.23;;;;;;;18.09;90.40;96934.56;5099517;27;20027;-78
2023/04/21 07:27:46;;;;;;;19.45;11.95;;;;;;;18.22;87.70;96921.44;5134181;27;20015;-78
2023/04/21 07:30:12;;;;;;;19.73;12.38;;;;;;;16.98;96.53;96936.72;5114787;27;20115;-77
2023/04/21 07:32:37;;;;;;;19.45;12.13;;;;;;;17.33;96.52;96925.97;5115628;27;20402;-78
2023/04/21 07:35:07;;;;;;;16.50;10.98;;;;;;;17.04;98.36;96934.22;5115443;27;20030;-77
2023/04/21 07:37:32;;;;;;;19.67;10.98;;;;;;;16.86;100.00;96927.09;5098251;27;20026;-76
2023/04/21 07:39:58;;;;;;;24.20;10.93;;;;;;;16.22;100.00;96933.19;5098687;27;20445;-76
2023/04/21 07:42:25;;;;;;;16.55;10.98;;;;;;;16.22;100.00;96950.25;5115735;27;20023;-76
2023/04/21 07:44:51;;;;;;;14.82;10.30;;;;;;;16.10;100.00;96943.31;5098358;27;20019;-75
2023/04/21 07:47:17;;;;;;;15.38;10.18;;;;;;;16.01;100.00;96948.72;5098240;27;20027;-76
2023/04/21 07:49:45;;;;;;;13.30;9.75;;;;;;;16.45;100.00;96948.09;5097950;27;20146;-76
2023/04/21 07:52:11;;;;;;;23.48;12.30;;;;;;;18.03;95.81;96946.81;5097977;27;20027;-77
2023/04/21 07:54:36;;;;;;;23.30;12.30;;;;;;;20.24;78.58;96938.59;5097768;27;20031;-78
2023/04/21 07:57:02;;;;;;;21.25;12.25;;;;;;;21.76;65.21;96916.56;5098223;27;20034;-77
2023/04/21 07:59:28;;;;;;;14.05;10.07;;;;;;;22.52;58.87;96905.59;5115105;27;20505;-77
2023/04/21 08:01:56;;;;;;;20.63;9.80;;;;;;;24.08;53.54;96903.34;5115026;27;20100;-77
2023/04/21 08:04:25;;;;;;;17.15;10.02;;;;;;;25.45;49.28;96891.78;5115521;27;20071;-78
2023/04/21 08:06:50;;;;;;;14.02;9.55;;;;;;;25.70;47.15;96867.47;5097799;27;20114;-78
2023/04/21 08:09:16;;;;;;;11.10;8.23;;;;;;;24.89;46.01;96862.84;5115408;27;20217;-77
2023/04/21 08:11:41;;;;;;;13.43;7.80;;;;;;;25.47;46.01;96866.94;5114710;27;20050;-77
2023/04/21 08:14:09;;;;;;;15.45;8.85;;;;;;;28.02;42.34;96869.53;5097796;27;20463;-77
2023/04/21 08:16:34;;;;;;;17.20;9.48;;;;;;;28.77;40.45;96850.41;5097769;27;20066;-78
2023/04/21 08:19:00;;;;;;;18.50;8.90;;;;;;;29.17;39.36;96843.41;5114989;27;20072;-78
2023/04/21 08:21:25;;;;;;;11.82;7.47;;;;;;;29.68;36.93;96809.13;5097308;27;20502;-78
2023/04/21 08:23:51;;;;;;;10.10;6.03;;;;;;;29.83;36.01;96809.56;5097504;27;20019;-78
2023/04/21 08:26:24;;;;;;;13.98;7.07;;;;;;;27.93;38.32;96813.13;5114947;27;20044;-78
2023/04/21 08:28:50;;;;;;;5.45;3.80;;;;;;;27.60;34.65;96786.88;5097952;27;20027;-77
2023/04/21 08:31:16;;;;;;;6.50;4.43;;;;;;;27.78;36.04;96793.34;5097719;27;20019;-79
2023/04/21 08:33:42;;;;;;;5.80;4.15;;;;;;;26.47;35.81;96760.00;5097483;27;20084;-78
2023/04/21 08:36:08;;;;;;;5.75;3.95;;;;;;;26.44;36.53;96787.84;5097452;27;20023;-78
2023/04/21 08:38:34;;;;;;;6.40;4.35;;;;;;;24.96;38.52;96776.16;5114713;27;20023;-78
2023/04/21 08:41:00;;;;;;;12.48;5.07;;;;;;;25.08;38.41;96793.66;5114030;27;20023;-78
2023/04/21 08:43:27;;;;;;;7.53;4.43;;;;;;;25.81;37.41;96807.41;5097363;27;20038;-78
2023/04/21 08:45:53;;;;;;;7.90;4.88;;;;;;;27.16;35.87;96810.53;5096863;27;20027;-78
2023/04/21 08:48:21;;;;;;;9.35;5.22;;;;;;;28.13;35.83;96828.69;5114357;27;20042;-78
2023/04/21 08:50:51;;;;;;;7.50;5.10;;;;;;;28.90;34.42;96825.50;5096971;27;20121;-78
2023/04/21 08:53:17;;;;;;;5.88;4.43;;;;;;;29.21;34.04;96817.09;5097125;27;20038;-78
2023/04/21 08:55:43;;;;;;;11.75;4.78;;;;;;;28.90;34.63;96800.72;5097316;27;20027;-78
2023/04/21 08:58:10;;;;;;;5.30;3.58;;;;;;;27.77;35.83;96790.81;5097152;27;20063;-78
2023/04/21 09:00:36;;;;;;;5.55;4.13;;;;;;;27.96;36.08;96807.16;5097499;27;20442;-79
2023/04/21 09:03:03;;;;;;;14.38;6.40;;;;;;;27.35;37.30;96812.34;5114517;27;20031;-78
2023/04/21 09:05:31;;;;;;;6.50;4.47;;;;;;;26.27;38.03;96782.81;5096956;27;20035;-79
2023/04/21 09:08:13;;;;;;;7.22;5.15;;;;;;;24.66;39.86;96781.00;5107233;28;20054;-77
2023/04/21 09:10:50;;;;;;;8.82;4.28;;;;;;;23.51;41.93;96787.78;5106768;27;20451;-78
2023/04/21 09:13:19;;;;;;;5.53;4.45;;;;;;;23.70;42.77;96804.41;5096573;27;20034;-77
2023/04/21 09:15:51;;;;;;;9.30;4.55;;;;;;;24.15;42.18;96816.81;5114053;27;20015;-78
2023/04/21 09:18:17;;;;;;;7.55;4.45;;;;;;;24.27;42.17;96820.69;5096449;27;20106;-78
2023/04/21 09:20:44;;;;;;;7.07;4.10;;;;;;;24.14;42.58;96823.34;5096704;27;20031;-78
2023/04/21 09:23:10;;;;;;;10.00;4.80;;;;;;;24.64;41.64;96832.34;5113669;27;20023;-78
2023/04/21 09:25:40;;;;;;;5.07;4.10;;;;;;;24.87;41.75;96826.63;5113772;27;20398;-79
2023/04/21 09:28:10;;;;;;;4.22;3.70;;;;;;;25.13;41.75;96816.66;5096357;27;20019;-78
2023/04/21 09:30:36;;;;;;;13.70;4.72;;;;;;;25.74;40.89;96825.75;5096327;27;20035;-78
2023/04/21 09:33:02;;;;;;;8.65;4.50;;;;;;;25.30;40.32;96782.41;5095468;27;20110;-78
2023/04/21 09:35:28;;;;;;;8.07;4.20;;;;;;;25.66;40.24;96816.88;5113432;27;20098;-78
2023/04/21 09:37:54;;;;;;;5.97;4.30;;;;;;;27.51;37.45;96830.28;5113761;27;20071;-78
2023/04/21 09:40:20;;;;;;;5.85;4.00;;;;;;;27.97;36.18;96805.25;5113454;27;20027;-78
2023/04/21 09:42:45;;;;;;;14.57;4.22;;;;;;;27.82;36.86;96811.09;5113419;27;20023;-78
2023/04/21 09:45:13;;;;;;;7.20;4.38;;;;;;;26.65;38.10;96780.22;5096334;27;20022;-78
2023/04/21 09:47:40;;;;;;;5.22;3.78;;;;;;;26.27;38.67;96787.47;5096231;27;20078;-78
2023/04/21 09:50:08;;;;;;;5.28;4.22;;;;;;;25.52;39.03;96760.38;5113240;27;20133;-78
2023/04/21 09:52:33;;;;;;;10.90;4.88;;;;;;;23.47;42.60;96754.56;5095621;27;20035;-78
2023/04/21 09:55:03;;;;;;;7.35;4.80;;;;;;;22.90;44.93;96775.50;5096258;28;20030;-78
2023/04/21 09:57:31;;;;;;;7.60;4.55;;;;;;;21.67;46.41;96752.44;5112935;28;20031;-78
2023/04/21 10:00:08;;;;;;;6.57;4.57;;;;;;;21.69;47.70;96783.03;5096281;28;20427;-78
2023/04/21 10:02:37;;;;;;;19.30;10.95;;;;;;;21.51;48.88;96785.22;5095851;28;20118;-78
2023/04/21 10:05:05;;;;;;;8.15;5.25;;;;;;;21.45;50.69;96789.50;5096025;28;20019;-78
2023/04/21 10:07:30;;;;;;;10.07;5.45;;;;;;;22.61;48.10;96815.38;5096009;28;20494;-77
2023/04/21 10:09:57;;;;;;;7.95;4.72;;;;;;;25.02;43.20;96825.44;5113262;28;20119;-77
2023/04/21 10:12:24;;;;;;;6.15;4.10;;;;;;;27.74;37.94;96840.75;5113073;28;20027;-78
2023/04/21 10:14:52;;;;;;;7.30;4.15;;;;;;;27.95;37.00;96826.66;5113196;28;20023;-78
2023/04/21 10:17:18;;;;;;;7.22;4.50;;;;;;;27.47;37.02;96807.06;5095894;28;20027;-78
2023/04/21 10:19:56;;;;;;;9.80;4.53;;;;;;;28.55;35.81;96816.91;5113022;28;20027;-78
2023/04/21 10:22:31;;;;;;;8.80;4.45;;;;;;;29.53;34.38;96818.63;5112616;28;20111;-78
2023/04/21 10:24:59;;;;;;;7.63;4.07;;;;;;;30.75;32.35;96821.91;5112893;28;20022;-78
2023/04/21 10:27:35;;;;;;;4.72;3.80;;;;;;;32.34;30.65;96833.13;5096152;28;20073;-79
2023/04/21 10:30:21;;;;;;;7.13;4.57;;;;;;;31.96;30.94;96772.88;5112749;28;20026;-78
2023/04/21 10:32:47;;;;;;;5.63;4.65;;;;;;;32.05;31.18;96789.97;5095945;27;20064;-77
2023/04/21 10:35:22;;;;;;;4.25;3.78;;;;;;;30.73;31.88;96752.28;5112702;28;20108;-78
2023/04/21 10:37:50;;;;;;;4.05;3.55;;;;;;;31.41;30.67;96755.19;5095947;28;20023;-78
2023/04/21 10:40:35;;;;;;;4.50;3.60;;;;;;;32.61;29.30;96776.00;5095800;28;20027;-78
2023/04/21 10:43:04;;;;;;;5.25;3.70;;;;;;;32.85;28.83;96756.44;5095687;28;20394;-78
2023/04/21 10:45:31;;;;;;;5.03;3.75;;;;;;;31.68;29.67;96718.44;5112747;28;20031;-79
2023/04/21 10:47:58;;;;;;;5.88;3.70;;;;;;;30.66;31.22;96715.66;5095814;28;20114;-79
2023/04/21 10:50:28;;;;;;;5.78;3.97;;;;;;;29.93;31.87;96705.03;5095367;28;20046;-79
2023/04/21 10:53:12;;;;;;;5.32;3.88;;;;;;;27.80;34.22;96688.66;5112648;28;20390;-79
2023/04/21 10:55:38;;;;;;;4.20;3.65;;;;;;;26.73;35.49;96677.63;5095773;28;20536;-77
2023/04/21 10:58:08;;;;;;;5.28;4.40;;;;;;;27.61;35.53;96720.72;5112546;27;20491;-77
2023/04/21 11:00:36;;;;;;;5.03;4.03;;;;;;;26.45;37.51;96707.25;5095807;28;20103;-77
2023/04/21 11:03:04;;;;;;;6.38;4.60;;;;;;;25.04;42.17;96727.53;5112946;28;20023;-78
2023/04/21 11:05:39;;;;;;;13.00;5.22;;;;;;;23.61;55.17;96780.13;5112699;28;20030;-76
2023/04/21 11:08:10;;;;;;;15.85;6.50;;;;;;;22.47;68.77;96818.94;5099579;27;20555;-76
2023/04/21 11:10:47;;;;;;;11.27;5.00;;;;;;;21.00;89.75;96850.13;5115824;27;20495;-78
2023/04/21 11:13:13;;;;;;;11.57;5.78;;;;;;;20.47;98.13;96880.69;5115976;27;20034;-77
2023/04/21 11:15:39;;;;;;;9.07;4.97;;;;;;;20.02;100.00;96886.66;5116052;27;20023;-77
2023/04/21 11:18:06;;;;;;;8.23;5.13;;;;;;;20.05;91.75;96857.44;5116156;27;20019;-78
2023/04/21 11:20:31;;;;;;;9.98;6.38;;;;;;;20.08;100.00;96878.81;5098811;27;20478;-78
2023/04/21 11:22:57;;;;;;;10.90;6.63;;;;;;;20.25;87.36;96856.91;5116177;27;20019;-78
2023/04/21 11:25:23;;;;;;;13.05;8.00;;;;;;;20.51;88.16;96859.44;5098979;27;20079;-78
2023/04/21 11:27:53;;;;;;;12.05;7.47;;;;;;;21.65;79.61;96863.38;5098985;27;20023;-77